sensor_id;sensor_type;location;lat;lon;timestamp;pressure;altitude;pressure_sealevel;temperature;humidity
23677;BME280;31493;49.058;12.190;2023-04-01T00:00:34;94676.50;;;7.02;100.00
23677;BME280;31493;49.058;12.190;2023-04-01T00:03:01;94671.84;;;7.07;100.00
23677;BME280;31493;49.058;12.190;2023-04-01T00:05:28;94680.84;;;7.02;100.00
23677;BME280;31493;49.058;12.190;2023-04-01T00:07:55;94670.66;;;7.00;100.00
23677;BME280;31493;49.058;12.190;2023-04-01T00:10:22;94676.63;;;7.00;100.00
23677;BME280;31493;49.058;12.190;2023-04-01T00:12:50;94673.47;;;6.97;100.00
23677;BME280;31493;49.058;12.190;2023-04-01T00:15:18;94679.22;;;7.00;100.00
23677;BME280;31493;49.058;12.190;2023-04-01T00:17:45;94665.28;;;7.03;100.00
23677;BME280;31493;49.058;12.190;2023-04-01T00:20:13;94660.25;;;7.02;100.00
23677;BME280;31493;49.058;12.190;2023-04-01T00:22:40;94666.91;;;7.04;100.00
23677;BME280;31493;49.058;12.190;2023-04-01T00:25:08;94651.47;;;7.04;100.00
23677;BME280;31493;49.058;12.190;2023-04-01T00:27:35;94669.16;;;7.20;100.00
23677;BME280;31493;49.058;12.190;2023-04-01T00:30:03;94665.28;;;7.25;100.00
23677;BME280;31493;49.058;12.190;2023-04-01T00:32:32;94665.75;;;7.31;100.00
23677;BME280;31493;49.058;12.190;2023-04-01T00:34:59;94649.59;;;7.17;100.00
23677;BME280;31493;49.058;12.190;2023-04-01T00:37:26;94670.66;;;7.22;100.00
23677;BME280;31493;49.058;12.190;2023-04-01T00:39:53;94673.09;;;7.24;100.00
23677;BME280;31493;49.058;12.190;2023-04-01T00:42:20;94658.13;;;7.18;100.00
23677;BME280;31493;49.058;12.190;2023-04-01T00:44:50;94667.13;;;7.23;100.00
23677;BME280;31493;49.058;12.190;2023-04-01T00:47:18;94653.81;;;7.18;100.00
23677;BME280;31493;49.058;12.190;2023-04-01T00:49:50;94650.78;;;7.13;100.00
23677;BME280;31493;49.058;12.190;2023-04-01T00:52:21;94654.66;;;7.19;100.00
23677;BME280;31493;49.058;12.190;2023-04-01T00:54:52;94639.91;;;7.10;100.00
23677;BME280;31493;49.058;12.190;2023-04-01T00:57:26;94649.38;;;7.09;100.00
23677;BME280;31493;49.058;12.190;2023-04-01T00:59:55;94651.34;;;7.06;100.00
23677;BME280;31493;49.058;12.190;2023-04-01T01:02:22;94656.53;;;6.94;100.00
23677;BME280;31493;49.058;12.190;2023-04-01T01:04:51;94660.38;;;7.00;100.00
23677;BME280;31493;49.058;12.190;2023-04-01T01:07:26;94661.53;;;6.96;100.00
23677;BME280;31493;49.058;12.190;2023-04-01T01:10:02;94655.56;;;6.84;100.00
23677;BME280;31493;49.058;12.190;2023-04-01T01:12:35;94655.56;;;6.95;100.00
23677;BME280;31493;49.058;12.190;2023-04-01T01:15:12;94653.47;;;7.00;100.00
23677;BME280;31493;49.058;12.190;2023-04-01T01:17:48;94654.41;;;7.11;100.00
23677;BME280;31493;49.058;12.190;2023-04-01T01:23:52;94654.66;;;7.08;100.00
23677;BME280;31493;49.058;12.190;2023-04-01T01:26:40;94663.53;;;7.04;100.00
23677;BME280;31493;49.058;12.190;2023-04-01T01:29:25;94652.19;;;6.95;100.00
23677;BME280;31493;49.058;12.190;2023-04-01T01:32:03;94649.13;;;6.90;100.00
23677;BME280;31493;49.058;12.190;2023-04-01T01:34:40;94658.38;;;6.92;100.00
23677;BME280;31493;49.058;12.190;2023-04-01T01:37:13;94646.31;;;6.93;100.00
23677;BME280;31493;49.058;12.190;2023-04-01T01:39:43;94661.06;;;6.91;100.00
23677;BME280;31493;49.058;12.190;2023-04-01T01:42:14;94653.34;;;6.91;100.00
23677;BME280;31493;49.058;12.190;2023-04-01T01:44:45;94647.03;;;6.95;100.00
23677;BME280;31493;49.058;12.190;2023-04-01T01:47:14;94650.56;;;6.94;100.00
23677;BME280;31493;49.058;12.190;2023-04-01T01:49:43;94638.72;;;7.03;100.00
23677;BME280;31493;49.058;12.190;2023-04-01T01:52:13;94643.66;;;6.94;100.00
23677;BME280;31493;49.058;12.190;2023-04-01T01:54:47;94643.41;;;6.97;100.00
23677;BME280;31493;49.058;12.190;2023-04-01T01:57:14;94653.59;;;6.88;100.00
23677;BME280;31493;49.058;12.190;2023-04-01T01:59:46;94645.41;;;6.94;100.00
23677;BME280;31493;49.058;12.190;2023-04-01T02:02:15;94657.22;;;6.96;100.00
23677;BME280;31493;49.058;12.190;2023-04-01T02:04:43;94650.88;;;7.12;100.00
23677;BME280;31493;49.058;12.190;2023-04-01T02:07:16;94646.78;;;6.98;100.00
23677;BME280;31493;49.058;12.190;2023-04-01T02:09:45;94649.50;;;6.96;100.00
23677;BME280;31493;49.058;12.190;2023-04-01T02:12:14;94653.00;;;6.95;100.00
23677;BME280;31493;49.058;12.190;2023-04-01T02:14:47;94647.72;;;6.97;100.00
23677;BME280;31493;49.058;12.190;2023-04-01T02:17:19;94644.81;;;6.90;100.00
23677;BME280;31493;49.058;12.190;2023-04-01T02:19:48;94651.38;;;6.94;100.00
23677;BME280;31493;49.058;12.190;2023-04-01T02:22:21;94653.94;;;6.94;100.00
23677;BME280;31493;49.058;12.190;2023-04-01T02:24:53;94649.72;;;6.93;100.00
23677;BME280;31493;49.058;12.190;2023-04-01T02:27:21;94644.34;;;6.96;100.00
23677;BME280;31493;49.058;12.190;2023-04-01T02:29:49;94652.88;;;6.97;100.00
23677;BME280;31493;49.058;12.190;2023-04-01T02:32:18;94648.19;;;6.91;100.00
23677;BME280;31493;49.058;12.190;2023-04-01T02:34:46;94654.75;;;6.84;100.00
23677;BME280;31493;49.058;12.190;2023-04-01T02:37:14;94655.22;;;6.89;100.00
23677;BME280;31493;49.058;12.190;2023-04-01T02:39:43;94656.03;;;6.89;100.00
23677;BME280;31493;49.058;12.190;2023-04-01T02:42:10;94655.22;;;6.89;100.00
23677;BME280;31493;49.058;12.190;2023-04-01T02:44:37;94664.44;;;6.91;100.00
23677;BME280;31493;49.058;12.190;2023-04-01T02:47:04;94671.59;;;6.88;100.00
23677;BME280;31493;49.058;12.190;2023-04-01T02:49:31;94662.69;;;6.92;100.00
23677;BME280;31493;49.058;12.190;2023-04-01T02:51:58;94677.66;;;6.87;100.00
23677;BME280;31493;49.058;12.190;2023-04-01T02:54:25;94671.34;;;6.80;100.00
23677;BME280;31493;49.058;12.190;2023-04-01T02:56:53;94668.44;;;6.84;100.00
23677;BME280;31493;49.058;12.190;2023-04-01T02:59:21;94671.94;;;6.83;100.00
23677;BME280;31493;49.058;12.190;2023-04-01T03:01:48;94672.16;;;6.80;100.00
23677;BME280;31493;49.058;12.190;2023-04-01T03:04:15;94686.09;;;6.89;100.00
23677;BME280;31493;49.058;12.190;2023-04-01T03:06:42;94689.13;;;6.83;100.00
23677;BME280;31493;49.058;12.190;2023-04-01T03:09:09;94678.47;;;6.87;100.00
23677;BME280;31493;49.058;12.190;2023-04-01T03:11:36;94680.59;;;6.82;100.00
23677;BME280;31493;49.058;12.190;2023-04-01T03:14:04;94679.53;;;6.85;100.00
23677;BME280;31493;49.058;12.190;2023-04-01T03:16:32;94685.50;;;6.85;100.00
23677;BME280;31493;49.058;12.190;2023-04-01T03:18:59;94686.78;;;6.80;100.00
23677;BME280;31493;49.058;12.190;2023-04-01T03:21:27;94678.03;;;6.82;100.00
23677;BME280;31493;49.058;12.190;2023-04-01T03:23:54;94687.72;;;6.79;100.00
23677;BME280;31493;49.058;12.190;2023-04-01T03:26:21;94694.16;;;6.84;100.00
23677;BME280;31493;49.058;12.190;2023-04-01T03:28:48;94680.44;;;6.72;100.00
23677;BME280;31493;49.058;12.190;2023-04-01T03:31:17;94684.06;;;6.81;100.00
23677;BME280;31493;49.058;12.190;2023-04-01T03:33:44;94686.78;;;6.80;100.00
23677;BME280;31493;49.058;12.190;2023-04-01T03:36:11;94684.81;;;6.83;100.00
23677;BME280;31493;49.058;12.190;2023-04-01T03:38:40;94694.13;;;6.73;100.00
23677;BME280;31493;49.058;12.190;2023-04-01T03:41:11;94702.47;;;6.88;100.00
23677;BME280;31493;49.058;12.190;2023-04-01T03:43:39;94689.59;;;6.77;100.00
23677;BME280;31493;49.058;12.190;2023-04-01T03:46:06;94695.09;;;6.83;100.00
23677;BME280;31493;49.058;12.190;2023-04-01T03:48:34;94683.03;;;6.84;100.00
23677;BME280;31493;49.058;12.190;2023-04-01T03:51:01;94685.94;;;6.79;100.00
23677;BME280;31493;49.058;12.190;2023-04-01T03:53:32;94691.69;;;6.83;100.00
23677;BME280;31493;49.058;12.190;2023-04-01T03:56:03;94697.78;;;6.82;100.00
23677;BME280;31493;49.058;12.190;2023-04-01T03:58:30;94694.94;;;6.73;100.00
23677;BME280;31493;49.058;12.190;2023-04-01T04:00:57;94704.41;;;6.73;100.00
23677;BME280;31493;49.058;12.190;2023-04-01T04:03:24;94693.44;;;6.71;100.00
23677;BME280;31493;49.058;12.190;2023-04-01T04:05:53;94696.81;;;6.71;100.00
23677;BME280;31493;49.058;12.190;2023-04-01T04:08:21;94705.47;;;6.70;100.00
23677;BME280;31493;49.058;12.190;2023-04-01T04:10:54;94696.50;;;6.76;100.00
23677;BME280;31493;49.058;12.190;2023-04-01T04:13:21;94709.06;;;6.68;100.00
23677;BME280;31493;49.058;12.190;2023-04-01T04:15:48;94694.00;;;6.63;100.00
23677;BME280;31493;49.058;12.190;2023-04-01T04:18:15;94692.00;;;6.67;100.00
23677;BME280;31493;49.058;12.190;2023-04-01T04:20:43;94701.72;;;6.74;100.00
23677;BME280;31493;49.058;12.190;2023-04-01T04:23:14;94704.66;;;6.70;100.00
23677;BME280;31493;49.058;12.190;2023-04-01T04:25:41;94700.66;;;6.66;100.00
23677;BME280;31493;49.058;12.190;2023-04-01T04:28:08;94701.72;;;6.63;100.00
23677;BME280;31493;49.058;12.190;2023-04-01T04:30:35;94720.09;;;6.70;100.00
23677;BME280;31493;49.058;12.190;2023-04-01T04:33:02;94704.75;;;6.68;100.00
23677;BME280;31493;49.058;12.190;2023-04-01T04:35:29;94715.28;;;6.65;100.00
23677;BME280;31493;49.058;12.190;2023-04-01T04:37:56;94722.06;;;6.66;100.00
23677;BME280;31493;49.058;12.190;2023-04-01T04:40:24;94722.28;;;6.63;100.00
23677;BME280;31493;49.058;12.190;2023-04-01T04:42:51;94715.41;;;6.64;100.00
23677;BME280;31493;49.058;12.190;2023-04-01T04:45:18;94716.91;;;6.66;100.00
23677;BME280;31493;49.058;12.190;2023-04-01T04:47:45;94732.81;;;6.71;100.00
23677;BME280;31493;49.058;12.190;2023-04-01T04:50:12;94737.81;;;6.62;100.00
23677;BME280;31493;49.058;12.190;2023-04-01T04:52:39;94728.94;;;6.66;100.00
23677;BME280;31493;49.058;12.190;2023-04-01T04:55:07;94720.38;;;6.54;100.00
23677;BME280;31493;49.058;12.190;2023-04-01T04:57:35;94729.41;;;6.60;100.00
23677;BME280;31493;49.058;12.190;2023-04-01T05:00:03;94725.78;;;6.62;100.00
23677;BME280;31493;49.058;12.190;2023-04-01T05:02:31;94731.94;;;6.49;100.00
23677;BME280;31493;49.058;12.190;2023-04-01T05:04:58;94728.78;;;6.45;100.00
23677;BME280;31493;49.058;12.190;2023-04-01T05:07:25;94735.88;;;6.41;100.00
23677;BME280;31493;49.058;12.190;2023-04-01T05:09:52;94718.81;;;6.40;100.00
23677;BME280;31493;49.058;12.190;2023-04-01T05:12:19;94723.72;;;6.43;100.00
23677;BME280;31493;49.058;12.190;2023-04-01T05:14:47;94735.69;;;6.44;100.00
23677;BME280;31493;49.058;12.190;2023-04-01T05:17:14;94731.38;;;6.56;100.00
23677;BME280;31493;49.058;12.190;2023-04-01T05:19:41;94729.97;;;6.52;100.00
23677;BME280;31493;49.058;12.190;2023-04-01T05:22:08;94745.53;;;6.62;100.00
23677;BME280;31493;49.058;12.190;2023-04-01T05:24:35;94740.13;;;6.54;100.00
23677;BME280;31493;49.058;12.190;2023-04-01T05:27:02;94741.66;;;6.56;100.00
23677;BME280;31493;49.058;12.190;2023-04-01T05:29:29;94736.31;;;6.59;100.00
23677;BME280;31493;49.058;12.190;2023-04-01T05:31:57;94737.13;;;6.60;100.00
23677;BME280;31493;49.058;12.190;2023-04-01T05:34:24;94730.22;;;6.60;100.00
23677;BME280;31493;49.058;12.190;2023-04-01T05:36:51;94738.31;;;6.67;100.00
23677;BME280;31493;49.058;12.190;2023-04-01T05:39:18;94743.56;;;6.65;100.00
23677;BME280;31493;49.058;12.190;2023-04-01T05:41:46;94734.03;;;6.90;100.00
23677;BME280;31493;49.058;12.190;2023-04-01T05:44:13;94735.78;;;6.89;100.00
23677;BME280;31493;49.058;12.190;2023-04-01T05:46:40;94740.34;;;6.86;100.00
23677;BME280;31493;49.058;12.190;2023-04-01T05:49:08;94743.72;;;6.86;100.00
23677;BME280;31493;49.058;12.190;2023-04-01T05:51:35;94737.53;;;6.89;100.00
23677;BME280;31493;49.058;12.190;2023-04-01T05:54:04;94730.78;;;6.88;100.00
23677;BME280;31493;49.058;12.190;2023-04-01T05:56:31;94744.91;;;6.93;100.00
23677;BME280;31493;49.058;12.190;2023-04-01T05:58:58;94743.16;;;6.83;100.00
23677;BME280;31493;49.058;12.190;2023-04-01T06:01:25;94751.84;;;6.69;100.00
23677;BME280;31493;49.058;12.190;2023-04-01T06:03:52;94744.38;;;6.66;100.00
23677;BME280;31493;49.058;12.190;2023-04-01T06:06:23;94747.56;;;6.69;100.00
23677;BME280;31493;49.058;12.190;2023-04-01T06:08:51;94742.50;;;6.68;100.00
23677;BME280;31493;49.058;12.190;2023-04-01T06:11:25;94751.53;;;6.73;100.00
23677;BME280;31493;49.058;12.190;2023-04-01T06:14:12;94754.91;;;6.74;100.00
23677;BME280;31493;49.058;12.190;2023-04-01T06:16:53;94743.59;;;6.77;100.00
23677;BME280;31493;49.058;12.190;2023-04-01T06:19:31;94739.97;;;6.79;100.00
23677;BME280;31493;49.058;12.190;2023-04-01T06:22:29;94733.56;;;6.85;100.00
23677;BME280;31493;49.058;12.190;2023-04-01T06:25:24;94754.75;;;6.88;100.00
23677;BME280;31493;49.058;12.190;2023-04-01T06:28:07;94741.06;;;6.88;100.00
23677;BME280;31493;49.058;12.190;2023-04-01T06:30:44;94744.78;;;6.84;100.00
23677;BME280;31493;49.058;12.190;2023-04-01T06:33:23;94750.28;;;6.90;100.00
23677;BME280;31493;49.058;12.190;2023-04-01T06:39:06;94765.03;;;6.99;100.00
23677;BME280;31493;49.058;12.190;2023-04-01T06:42:07;94749.25;;;7.04;100.00
23677;BME280;31493;49.058;12.190;2023-04-01T06:44:44;94759.78;;;7.01;100.00
23677;BME280;31493;49.058;12.190;2023-04-01T06:47:27;94767.75;;;7.09;100.00
23677;BME280;31493;49.058;12.190;2023-04-01T06:50:00;94760.84;;;7.10;100.00
23677;BME280;31493;49.058;12.190;2023-04-01T06:52:40;94762.97;;;7.16;100.00
23677;BME280;31493;49.058;12.190;2023-04-01T06:55:25;94760.50;;;7.14;100.00
23677;BME280;31493;49.058;12.190;2023-04-01T06:57:56;94766.13;;;7.08;100.00
23677;BME280;31493;49.058;12.190;2023-04-01T07:00:30;94774.06;;;7.16;100.00
23677;BME280;31493;49.058;12.190;2023-04-01T07:03:05;94760.06;;;7.20;100.00
23677;BME280;31493;49.058;12.190;2023-04-01T07:05:35;94766.13;;;7.19;100.00
23677;BME280;31493;49.058;12.190;2023-04-01T07:08:04;94763.41;;;7.10;100.00
23677;BME280;31493;49.058;12.190;2023-04-01T07:10:43;94757.59;;;7.30;100.00
23677;BME280;31493;49.058;12.190;2023-04-01T07:13:16;94756.06;;;7.27;100.00
23677;BME280;31493;49.058;12.190;2023-04-01T07:15:54;94757.94;;;7.25;100.00
23677;BME280;31493;49.058;12.190;2023-04-01T07:18:30;94751.75;;;7.39;100.00
23677;BME280;31493;49.058;12.190;2023-04-01T07:20:58;94744.25;;;7.59;100.00
23677;BME280;31493;49.058;12.190;2023-04-01T07:23:31;94748.25;;;7.51;100.00
23677;BME280;31493;49.058;12.190;2023-04-01T07:26:07;94761.94;;;7.52;100.00
23677;BME280;31493;49.058;12.190;2023-04-01T07:28:37;94768.84;;;7.63;100.00
23677;BME280;31493;49.058;12.190;2023-04-01T07:31:15;94760.88;;;7.66;100.00
23677;BME280;31493;49.058;12.190;2023-04-01T07:33:53;94749.53;;;7.68;100.00
23677;BME280;31493;49.058;12.190;2023-04-01T07:36:29;94768.84;;;7.74;100.00
23677;BME280;31493;49.058;12.190;2023-04-01T07:39:08;94751.72;;;7.73;100.00
23677;BME280;31493;49.058;12.190;2023-04-01T07:41:45;94760.88;;;7.77;100.00
23677;BME280;31493;49.058;12.190;2023-04-01T07:44:21;94772.25;;;7.74;100.00
23677;BME280;31493;49.058;12.190;2023-04-01T07:47:02;94761.81;;;7.76;100.00
23677;BME280;31493;49.058;12.190;2023-04-01T07:49:37;94759.81;;;7.79;100.00
23677;BME280;31493;49.058;12.190;2023-04-01T07:52:12;94765.06;;;7.89;100.00
23677;BME280;31493;49.058;12.190;2023-04-01T07:54:46;94769.94;;;8.03;100.00
23677;BME280;31493;49.058;12.190;2023-04-01T07:57:20;94765.25;;;8.08;100.00
23677;BME280;31493;49.058;12.190;2023-04-01T07:59:58;94759.16;;;8.09;100.00
23677;BME280;31493;49.058;12.190;2023-04-01T08:02:33;94753.09;;;8.11;100.00
23677;BME280;31493;49.058;12.190;2023-04-01T08:05:11;94752.59;;;8.17;100.00
23677;BME280;31493;49.058;12.190;2023-04-01T08:07:45;94759.13;;;8.21;100.00
23677;BME280;31493;49.058;12.190;2023-04-01T08:10:21;94751.88;;;8.26;100.00
23677;BME280;31493;49.058;12.190;2023-04-01T08:12:59;94750.91;;;8.38;100.00
23677;BME280;31493;49.058;12.190;2023-04-01T08:15:37;94747.84;;;8.44;100.00
23677;BME280;31493;49.058;12.190;2023-04-01T08:18:17;94750.56;;;8.43;100.00
23677;BME280;31493;49.058;12.190;2023-04-01T08:20:50;94741.06;;;8.43;100.00
23677;BME280;31493;49.058;12.190;2023-04-01T08:23:23;94737.97;;;8.49;100.00
23677;BME280;31493;49.058;12.190;2023-04-01T08:25:56;94755.09;;;8.71;100.00
23677;BME280;31493;49.058;12.190;2023-04-01T08:28:29;94749.84;;;8.73;100.00
23677;BME280;31493;49.058;12.190;2023-04-01T08:31:01;94759.22;;;8.74;100.00
23677;BME280;31493;49.058;12.190;2023-04-01T08:33:30;94750.03;;;8.81;100.00
23677;BME280;31493;49.058;12.190;2023-04-01T08:36:03;94762.72;;;9.14;100.00
23677;BME280;31493;49.058;12.190;2023-04-01T08:38:36;94744.03;;;9.01;98.96
23677;BME280;31493;49.058;12.190;2023-04-01T08:41:28;94739.94;;;9.20;98.78
23677;BME280;31493;49.058;12.190;2023-04-01T08:47:20;94742.50;;;9.40;97.79
23677;BME280;31493;49.058;12.190;2023-04-01T08:50:12;94740.13;;;9.28;97.84
23677;BME280;31493;49.058;12.190;2023-04-01T08:53:00;94717.09;;;9.46;96.76
23677;BME280;31493;49.058;12.190;2023-04-01T08:55:59;94740.03;;;9.39;96.62
23677;BME280;31493;49.058;12.190;2023-04-01T08:58:45;94741.47;;;9.53;96.62
23677;BME280;31493;49.058;12.190;2023-04-01T09:01:23;94736.22;;;9.64;94.06
23677;BME280;31493;49.058;12.190;2023-04-01T09:04:01;94724.78;;;9.66;94.23
23677;BME280;31493;49.058;12.190;2023-04-01T09:06:37;94731.97;;;9.63;95.25
23677;BME280;31493;49.058;12.190;2023-04-01T09:09:23;94727.03;;;9.50;94.71
23677;BME280;31493;49.058;12.190;2023-04-01T09:12:11;94723.69;;;9.59;94.61
23677;BME280;31493;49.058;12.190;2023-04-01T09:14:58;94742.00;;;9.56;93.75
23677;BME280;31493;49.058;12.190;2023-04-01T09:17:42;94729.94;;;9.66;95.03
23677;BME280;31493;49.058;12.190;2023-04-01T09:20:38;94741.84;;;9.48;92.81
23677;BME280;31493;49.058;12.190;2023-04-01T09:23:20;94741.53;;;9.41;92.54
23677;BME280;31493;49.058;12.190;2023-04-01T09:26:00;94745.31;;;9.37;93.14
23677;BME280;31493;49.058;12.190;2023-04-01T09:28:39;94734.47;;;9.43;92.56
23677;BME280;31493;49.058;12.190;2023-04-01T09:31:35;94741.16;;;9.86;94.97
23677;BME280;31493;49.058;12.190;2023-04-01T09:34:25;94742.63;;;9.79;92.75
23677;BME280;31493;49.058;12.190;2023-04-01T09:37:07;94709.47;;;9.84;92.99
23677;BME280;31493;49.058;12.190;2023-04-01T09:39:51;94726.28;;;9.69;93.11
23677;BME280;31493;49.058;12.190;2023-04-01T09:42:37;94717.19;;;9.75;91.45
23677;BME280;31493;49.058;12.190;2023-04-01T09:45:17;94728.94;;;9.88;92.47
23677;BME280;31493;49.058;12.190;2023-04-01T09:48:02;94732.88;;;9.92;93.96
23677;BME280;31493;49.058;12.190;2023-04-01T09:50:41;94719.09;;;9.73;93.46
23677;BME280;31493;49.058;12.190;2023-04-01T09:53:28;94748.84;;;9.67;93.19
23677;BME280;31493;49.058;12.190;2023-04-01T09:56:27;94745.84;;;9.62;93.76
23677;BME280;31493;49.058;12.190;2023-04-01T09:59:20;94743.53;;;9.59;94.29
23677;BME280;31493;49.058;12.190;2023-04-01T10:11:19;94734.66;;;9.52;93.20
23677;BME280;31493;49.058;12.190;2023-04-01T10:16:59;94737.94;;;9.63;93.33
23677;BME280;31493;49.058;12.190;2023-04-01T10:19:52;94750.34;;;9.69;94.57
23677;BME280;31493;49.058;12.190;2023-04-01T10:22:42;94738.75;;;9.94;94.64
23677;BME280;31493;49.058;12.190;2023-04-01T10:25:30;94735.88;;;9.98;94.77
23677;BME280;31493;49.058;12.190;2023-04-01T10:28:25;94738.16;;;9.81;93.49
23677;BME280;31493;49.058;12.190;2023-04-01T10:31:13;94727.94;;;9.70;93.55
23677;BME280;31493;49.058;12.190;2023-04-01T10:36:53;94738.59;;;9.46;96.07
23677;BME280;31493;49.058;12.190;2023-04-01T10:42:41;94730.19;;;9.54;94.39
23677;BME280;31493;49.058;12.190;2023-04-01T10:45:43;94728.34;;;9.45;93.90
23677;BME280;31493;49.058;12.190;2023-04-01T10:48:49;94730.19;;;9.54;93.75
23677;BME280;31493;49.058;12.190;2023-04-01T10:51:51;94721.59;;;9.53;92.61
23677;BME280;31493;49.058;12.190;2023-04-01T10:54:40;94730.19;;;9.54;93.95
23677;BME280;31493;49.058;12.190;2023-04-01T10:57:20;94718.84;;;9.45;94.84
23677;BME280;31493;49.058;12.190;2023-04-01T11:00:23;94721.56;;;9.43;94.46
23677;BME280;31493;49.058;12.190;2023-04-01T11:13:00;94728.63;;;9.41;96.02
23677;BME280;31493;49.058;12.190;2023-04-01T11:15:56;94702.00;;;9.51;95.10
23677;BME280;31493;49.058;12.190;2023-04-01T11:19:02;94709.50;;;9.54;94.71
23677;BME280;31493;49.058;12.190;2023-04-01T11:21:54;94704.59;;;9.51;94.29
23677;BME280;31493;49.058;12.190;2023-04-01T11:24:38;94704.47;;;9.52;95.35
23677;BME280;31493;49.058;12.190;2023-04-01T11:27:24;94711.53;;;9.50;96.41
23677;BME280;31493;49.058;12.190;2023-04-01T11:30:05;94715.03;;;9.39;94.36
23677;BME280;31493;49.058;12.190;2023-04-01T11:32:49;94704.28;;;9.34;94.30
23677;BME280;31493;49.058;12.190;2023-04-01T11:35:41;94713.91;;;9.32;94.93
23677;BME280;31493;49.058;12.190;2023-04-01T11:38:22;94723.97;;;9.35;95.62
23677;BME280;31493;49.058;12.190;2023-04-01T11:41:01;94721.53;;;9.34;97.42
23677;BME280;31493;49.058;12.190;2023-04-01T11:43:34;94705.69;;;9.18;99.00
23677;BME280;31493;49.058;12.190;2023-04-01T11:46:10;94722.78;;;8.88;100.00
23677;BME280;31493;49.058;12.190;2023-04-01T11:48:55;94744.41;;;8.55;100.00
23677;BME280;31493;49.058;12.190;2023-04-01T11:54:30;94744.19;;;8.47;100.00
23677;BME280;31493;49.058;12.190;2023-04-01T11:57:10;94740.13;;;8.33;100.00
23677;BME280;31493;49.058;12.190;2023-04-01T11:59:55;94742.50;;;8.36;100.00
23677;BME280;31493;49.058;12.190;2023-04-01T12:02:29;94751.16;;;8.35;100.00
23677;BME280;31493;49.058;12.190;2023-04-01T12:05:31;94758.34;;;8.52;100.00
23677;BME280;31493;49.058;12.190;2023-04-01T12:08:13;94760.06;;;8.42;100.00
23677;BME280;31493;49.058;12.190;2023-04-01T12:10:53;94750.19;;;8.47;100.00
23677;BME280;31493;49.058;12.190;2023-04-01T12:13:32;94750.19;;;8.47;100.00
23677;BME280;31493;49.058;12.190;2023-04-01T12:16:15;94750.28;;;8.46;100.00
23677;BME280;31493;49.058;12.190;2023-04-01T12:18:50;94740.47;;;8.40;100.00
23677;BME280;31493;49.058;12.190;2023-04-01T12:21:26;94747.63;;;8.47;100.00
23677;BME280;31493;49.058;12.190;2023-04-01T12:24:32;94749.69;;;8.53;100.00
23677;BME280;31493;49.058;12.190;2023-04-01T12:27:12;94750.84;;;8.60;100.00
23677;BME280;31493;49.058;12.190;2023-04-01T12:29:58;94747.22;;;8.52;100.00
23677;BME280;31493;49.058;12.190;2023-04-01T12:32:39;94747.38;;;8.39;100.00
23677;BME280;31493;49.058;12.190;2023-04-01T12:35:20;94743.88;;;8.40;100.00
23677;BME280;31493;49.058;12.190;2023-04-01T12:38:02;94739.66;;;8.28;100.00
23677;BME280;31493;49.058;12.190;2023-04-01T12:41:02;94749.41;;;8.24;100.00
23677;BME280;31493;49.058;12.190;2023-04-01T12:46:46;94757.88;;;8.04;100.00
23677;BME280;31493;49.058;12.190;2023-04-01T12:49:32;94760.69;;;8.12;100.00
23677;BME280;31493;49.058;12.190;2023-04-01T12:52:07;94752.84;;;8.02;100.00
23677;BME280;31493;49.058;12.190;2023-04-01T12:54:53;94758.81;;;8.03;100.00
23677;BME280;31493;49.058;12.190;2023-04-01T12:57:33;94767.16;;;8.06;100.00
23677;BME280;31493;49.058;12.190;2023-04-01T13:00:22;94759.88;;;8.12;100.00
23677;BME280;31493;49.058;12.190;2023-04-01T13:03:05;94758.13;;;8.12;100.00
23677;BME280;31493;49.058;12.190;2023-04-01T13:08:43;94769.38;;;8.00;100.00
23677;BME280;31493;49.058;12.190;2023-04-01T13:11:20;94764.47;;;7.97;100.00
23677;BME280;31493;49.058;12.190;2023-04-01T13:14:20;94760.03;;;7.88;100.00
23677;BME280;31493;49.058;12.190;2023-04-01T13:16:55;94771.28;;;7.87;100.00
23677;BME280;31493;49.058;12.190;2023-04-01T13:19:29;94770.47;;;7.86;100.00
23677;BME280;31493;49.058;12.190;2023-04-01T13:22:06;94782.75;;;7.82;100.00
23677;BME280;31493;49.058;12.190;2023-04-01T13:24:42;94774.81;;;7.74;100.00
23677;BME280;31493;49.058;12.190;2023-04-01T13:27:18;94783.84;;;7.80;100.00
23677;BME280;31493;49.058;12.190;2023-04-01T13:30:00;94771.66;;;7.71;100.00
23677;BME280;31493;49.058;12.190;2023-04-01T13:32:35;94767.31;;;7.71;100.00
23677;BME280;31493;49.058;12.190;2023-04-01T13:35:16;94777.97;;;7.67;100.00
23677;BME280;31493;49.058;12.190;2023-04-01T13:38:09;94769.75;;;7.73;100.00
23677;BME280;31493;49.058;12.190;2023-04-01T13:40:49;94768.72;;;7.64;100.00
23677;BME280;31493;49.058;12.190;2023-04-01T13:43:23;94781.47;;;7.66;100.00
23677;BME280;31493;49.058;12.190;2023-04-01T13:46:06;94787.09;;;7.71;100.00
23677;BME280;31493;49.058;12.190;2023-04-01T13:49:07;94788.03;;;7.81;100.00
23677;BME280;31493;49.058;12.190;2023-04-01T13:51:52;94782.50;;;7.86;100.00
23677;BME280;31493;49.058;12.190;2023-04-01T13:54:33;94788.97;;;7.80;100.00
23677;BME280;31493;49.058;12.190;2023-04-01T13:57:17;94793.41;;;7.78;100.00
23677;BME280;31493;49.058;12.190;2023-04-01T14:00:17;94782.41;;;7.76;100.00
23677;BME280;31493;49.058;12.190;2023-04-01T14:02:51;94784.19;;;7.64;100.00
23677;BME280;31493;49.058;12.190;2023-04-01T14:05:38;94789.09;;;7.67;100.00
23677;BME280;31493;49.058;12.190;2023-04-01T14:08:20;94793.06;;;7.71;100.00
23677;BME280;31493;49.058;12.190;2023-04-01T14:11:02;94792.25;;;7.71;100.00
23677;BME280;31493;49.058;12.190;2023-04-01T14:13:40;94795.03;;;7.79;100.00
23677;BME280;31493;49.058;12.190;2023-04-01T14:16:36;94779.84;;;7.87;100.00
23677;BME280;31493;49.058;12.190;2023-04-01T14:19:21;94785.69;;;7.89;100.00
23677;BME280;31493;49.058;12.190;2023-04-01T14:21:58;94792.72;;;7.87;100.00
23677;BME280;31493;49.058;12.190;2023-04-01T14:24:42;94788.03;;;7.92;100.00